Smyrna, TN (MQY)

CessnaPCRedbird FMX


Wings of Eagles Aviation started in Smyrna (MQY) in 1998 as a small flight school. The Smyrna Airport is the third largest airport in the state of Tennessee and the busiest general aviation airport. With its longest runway being just over 8,000 feet and having its own air traffic control tower, this is the best possible training environment for all pilots. Once you learn how to fly here, you will be confident no matter where your aviation adventures take you.

Address:
278 Doug Warpoole Rd. Suite 104
Smyrna, TN 37167

Phone: (615) 355-0033

Business Hours:
Monday-Sunday 7a-10p

Wings MQY

NOAA Weather

Smyrna, TN

Last Updated on Nov 24 2017, 2:56 pm CST

Current Conditions: Fair

NOAA Icon

Temp: 62°F

Wind: South at 5mph

Humidity: 29%

Windchill: 62°F

Your 5-Day Forecast at a Glance

Available data for KMQY from the past 2 hours
SMYRNA, TN
Metar
KMQY 242156Z 18006KT 10SM CLR 16/00 A2990 RMK AO2 SLP083 T01610000

21:56 UTC

Wind: 180° 6kt

Visibility: 10 SM

Sky:

Temp: 16 deg C / 60.8 deg F

Dewpoint: 0 deg C / 32 deg F

Pressure: 29.9 inHg

TAF
KMQY 241720Z 2418/2518 14005KT P6SM SCT250 FM251300 23006KT P6SM BKN110 FM251700 31006KT P6SM BKN050
Pirep (1)
BWG UA /OV BWG020011/TM 2018/FL100/TP PA30/SK FEW130/WX FV99SM/TA 05/WV 24118KT/TB NEG/IC NEG